sensor_id;sensor_type;location;lat;lon;timestamp;P1;durP1;ratioP1;P2;durP2;ratioP2
20314;SDS011;10315;50.958;13.080;2023-03-14T00:06:35;0.80;;;0.80;;
20314;SDS011;10315;50.958;13.080;2023-03-14T00:16:38;1.70;;;0.90;;
20314;SDS011;10315;50.958;13.080;2023-03-14T00:26:40;1.47;;;0.80;;
20314;SDS011;10315;50.958;13.080;2023-03-14T00:36:44;1.27;;;1.00;;
20314;SDS011;10315;50.958;13.080;2023-03-14T00:46:45;0.73;;;0.70;;
20314;SDS011;10315;50.958;13.080;2023-03-14T00:56:48;0.50;;;0.50;;
20314;SDS011;10315;50.958;13.080;2023-03-14T01:06:50;0.60;;;0.60;;
20314;SDS011;10315;50.958;13.080;2023-03-14T01:16:53;0.47;;;0.47;;
20314;SDS011;10315;50.958;13.080;2023-03-14T01:27:00;0.57;;;0.57;;
20314;SDS011;10315;50.958;13.080;2023-03-14T01:37:03;0.40;;;0.40;;
20314;SDS011;10315;50.958;13.080;2023-03-14T01:47:06;0.93;;;0.43;;
20314;SDS011;10315;50.958;13.080;2023-03-14T01:57:10;1.90;;;0.53;;
20314;SDS011;10315;50.958;13.080;2023-03-14T02:07:16;0.37;;;0.37;;
20314;SDS011;10315;50.958;13.080;2023-03-14T02:17:21;1.03;;;0.30;;
20314;SDS011;10315;50.958;13.080;2023-03-14T02:27:28;0.77;;;0.47;;
20314;SDS011;10315;50.958;13.080;2023-03-14T02:37:37;0.30;;;0.30;;
20314;SDS011;10315;50.958;13.080;2023-03-14T02:47:45;0.30;;;0.30;;
20314;SDS011;10315;50.958;13.080;2023-03-14T02:57:50;0.23;;;0.23;;
20314;SDS011;10315;50.958;13.080;2023-03-14T03:07:53;0.37;;;0.30;;
20314;SDS011;10315;50.958;13.080;2023-03-14T03:17:57;0.30;;;0.30;;
20314;SDS011;10315;50.958;13.080;2023-03-14T03:28:07;2.63;;;0.50;;
20314;SDS011;10315;50.958;13.080;2023-03-14T03:38:09;0.87;;;0.40;;
20314;SDS011;10315;50.958;13.080;2023-03-14T03:48:13;0.30;;;0.27;;
20314;SDS011;10315;50.958;13.080;2023-03-14T03:58:14;0.33;;;0.33;;
20314;SDS011;10315;50.958;13.080;2023-03-14T04:08:17;1.90;;;0.40;;
20314;SDS011;10315;50.958;13.080;2023-03-14T04:18:19;2.43;;;0.57;;
20314;SDS011;10315;50.958;13.080;2023-03-14T04:28:22;1.60;;;0.60;;
20314;SDS011;10315;50.958;13.080;2023-03-14T04:38:24;3.83;;;0.60;;
20314;SDS011;10315;50.958;13.080;2023-03-14T04:48:27;1.90;;;0.43;;
20314;SDS011;10315;50.958;13.080;2023-03-14T04:58:28;2.70;;;0.80;;
20314;SDS011;10315;50.958;13.080;2023-03-14T05:08:31;4.00;;;0.83;;
20314;SDS011;10315;50.958;13.080;2023-03-14T05:18:33;1.47;;;0.53;;
20314;SDS011;10315;50.958;13.080;2023-03-14T05:28:36;5.07;;;1.10;;
20314;SDS011;10315;50.958;13.080;2023-03-14T05:38:37;2.37;;;1.07;;
20314;SDS011;10315;50.958;13.080;2023-03-14T05:48:40;3.40;;;1.20;;
20314;SDS011;10315;50.958;13.080;2023-03-14T05:58:48;2.23;;;1.20;;
20314;SDS011;10315;50.958;13.080;2023-03-14T06:08:54;2.87;;;0.80;;
20314;SDS011;10315;50.958;13.080;2023-03-14T06:18:55;5.03;;;0.80;;
20314;SDS011;10315;50.958;13.080;2023-03-14T06:28:58;1.87;;;0.80;;
20314;SDS011;10315;50.958;13.080;2023-03-14T06:39:03;3.33;;;0.80;;
20314;SDS011;10315;50.958;13.080;2023-03-14T06:49:06;3.83;;;0.80;;
20314;SDS011;10315;50.958;13.080;2023-03-14T06:59:07;1.10;;;1.00;;
20314;SDS011;10315;50.958;13.080;2023-03-14T07:09:10;2.63;;;1.00;;
20314;SDS011;10315;50.958;13.080;2023-03-14T07:19:12;0.77;;;0.60;;
20314;SDS011;10315;50.958;13.080;2023-03-14T07:29:15;3.00;;;1.07;;
20314;SDS011;10315;50.958;13.080;2023-03-14T07:39:17;2.17;;;1.03;;
20314;SDS011;10315;50.958;13.080;2023-03-14T07:49:20;0.70;;;0.70;;
20314;SDS011;10315;50.958;13.080;2023-03-14T07:59:21;1.00;;;0.80;;
20314;SDS011;10315;50.958;13.080;2023-03-14T08:09:24;1.80;;;0.70;;
20314;SDS011;10315;50.958;13.080;2023-03-14T08:19:26;2.93;;;0.87;;
20314;SDS011;10315;50.958;13.080;2023-03-14T08:29:29;2.50;;;0.93;;
20314;SDS011;10315;50.958;13.080;2023-03-14T08:39:31;3.37;;;0.40;;
20314;SDS011;10315;50.958;13.080;2023-03-14T08:49:34;1.33;;;0.60;;
20314;SDS011;10315;50.958;13.080;2023-03-14T08:59:35;3.33;;;1.10;;
20314;SDS011;10315;50.958;13.080;2023-03-14T09:09:38;3.00;;;0.67;;
20314;SDS011;10315;50.958;13.080;2023-03-14T09:19:40;0.60;;;0.60;;
20314;SDS011;10315;50.958;13.080;2023-03-14T09:29:43;2.60;;;0.57;;
20314;SDS011;10315;50.958;13.080;2023-03-14T09:39:44;3.20;;;0.50;;
20314;SDS011;10315;50.958;13.080;2023-03-14T09:49:47;1.23;;;0.60;;
20314;SDS011;10315;50.958;13.080;2023-03-14T09:59:49;4.23;;;0.60;;
20314;SDS011;10315;50.958;13.080;2023-03-14T10:09:58;0.47;;;0.40;;
20314;SDS011;10315;50.958;13.080;2023-03-14T10:20:00;2.63;;;0.80;;
20314;SDS011;10315;50.958;13.080;2023-03-14T10:30:04;0.70;;;0.70;;
20314;SDS011;10315;50.958;13.080;2023-03-14T10:40:12;0.93;;;0.53;;
20314;SDS011;10315;50.958;13.080;2023-03-14T10:50:24;1.70;;;0.80;;
20314;SDS011;10315;50.958;13.080;2023-03-14T11:00:27;2.87;;;0.63;;
20314;SDS011;10315;50.958;13.080;2023-03-14T11:10:35;3.17;;;0.60;;
20314;SDS011;10315;50.958;13.080;2023-03-14T11:20:45;0.67;;;0.40;;
20314;SDS011;10315;50.958;13.080;2023-03-14T11:30:53;0.60;;;0.50;;
20314;SDS011;10315;50.958;13.080;2023-03-14T11:40:57;0.93;;;0.47;;
20314;SDS011;10315;50.958;13.080;2023-03-14T11:51:01;1.20;;;0.50;;
20314;SDS011;10315;50.958;13.080;2023-03-14T12:01:08;0.93;;;0.30;;
20314;SDS011;10315;50.958;13.080;2023-03-14T12:11:19;0.77;;;0.40;;
20314;SDS011;10315;50.958;13.080;2023-03-14T12:21:42;0.30;;;0.30;;
20314;SDS011;10315;50.958;13.080;2023-03-14T12:31:49;1.50;;;0.60;;
20314;SDS011;10315;50.958;13.080;2023-03-14T12:42:08;0.93;;;0.30;;
20314;SDS011;10315;50.958;13.080;2023-03-14T12:52:14;0.87;;;0.50;;
20314;SDS011;10315;50.958;13.080;2023-03-14T13:02:20;0.30;;;0.30;;
20314;SDS011;10315;50.958;13.080;2023-03-14T13:12:30;1.57;;;0.50;;
20314;SDS011;10315;50.958;13.080;2023-03-14T13:22:38;0.77;;;0.50;;
20314;SDS011;10315;50.958;13.080;2023-03-14T13:32:52;1.40;;;0.40;;
20314;SDS011;10315;50.958;13.080;2023-03-14T13:43:01;1.20;;;0.30;;
20314;SDS011;10315;50.958;13.080;2023-03-14T13:53:15;0.60;;;0.40;;
20314;SDS011;10315;50.958;13.080;2023-03-14T14:03:17;0.30;;;0.30;;
20314;SDS011;10315;50.958;13.080;2023-03-14T14:13:19;1.03;;;0.90;;
20314;SDS011;10315;50.958;13.080;2023-03-14T14:23:24;0.30;;;0.30;;
20314;SDS011;10315;50.958;13.080;2023-03-14T14:33:30;7.03;;;0.35;;
20314;SDS011;10315;50.958;13.080;2023-03-14T14:43:40;0.53;;;0.30;;
20314;SDS011;10315;50.958;13.080;2023-03-14T14:53:43;1.13;;;0.30;;
20314;SDS011;10315;50.958;13.080;2023-03-14T15:03:47;0.63;;;0.37;;
20314;SDS011;10315;50.958;13.080;2023-03-14T15:13:52;8.83;;;3.50;;
20314;SDS011;10315;50.958;13.080;2023-03-14T15:23:54;8.27;;;3.37;;
20314;SDS011;10315;50.958;13.080;2023-03-14T15:33:57;3.17;;;1.20;;
20314;SDS011;10315;50.958;13.080;2023-03-14T15:43:59;1.10;;;0.70;;
20314;SDS011;10315;50.958;13.080;2023-03-14T15:54:02;3.20;;;1.43;;
20314;SDS011;10315;50.958;13.080;2023-03-14T16:04:03;1.47;;;0.60;;
20314;SDS011;10315;50.958;13.080;2023-03-14T16:14:06;1.13;;;0.60;;
20314;SDS011;10315;50.958;13.080;2023-03-14T16:24:12;0.50;;;0.50;;
20314;SDS011;10315;50.958;13.080;2023-03-14T16:34:15;2.83;;;0.63;;
20314;SDS011;10315;50.958;13.080;2023-03-14T16:44:16;0.60;;;0.60;;
20314;SDS011;10315;50.958;13.080;2023-03-14T16:54:19;1.10;;;0.50;;
20314;SDS011;10315;50.958;13.080;2023-03-14T17:04:21;0.53;;;0.53;;
20314;SDS011;10315;50.958;13.080;2023-03-14T17:14:24;2.13;;;0.97;;
20314;SDS011;10315;50.958;13.080;2023-03-14T17:24:26;2.07;;;1.10;;
20314;SDS011;10315;50.958;13.080;2023-03-14T17:34:29;3.10;;;0.93;;
20314;SDS011;10315;50.958;13.080;2023-03-14T17:44:30;1.30;;;0.90;;
20314;SDS011;10315;50.958;13.080;2023-03-14T17:54:34;4.93;;;1.07;;
20314;SDS011;10315;50.958;13.080;2023-03-14T18:04:35;1.10;;;1.03;;
20314;SDS011;10315;50.958;13.080;2023-03-14T18:14:38;2.70;;;1.50;;
20314;SDS011;10315;50.958;13.080;2023-03-14T18:24:43;4.20;;;1.77;;
20314;SDS011;10315;50.958;13.080;2023-03-14T18:34:48;6.20;;;2.27;;
20314;SDS011;10315;50.958;13.080;2023-03-14T18:44:49;6.73;;;2.50;;
20314;SDS011;10315;50.958;13.080;2023-03-14T18:54:52;7.97;;;2.83;;
20314;SDS011;10315;50.958;13.080;2023-03-14T19:04:54;14.60;;;3.53;;
20314;SDS011;10315;50.958;13.080;2023-03-14T19:14:57;10.20;;;2.93;;
20314;SDS011;10315;50.958;13.080;2023-03-14T19:24:59;6.50;;;2.33;;
20314;SDS011;10315;50.958;13.080;2023-03-14T19:35:02;13.90;;;2.63;;
20314;SDS011;10315;50.958;13.080;2023-03-14T19:45:10;13.77;;;2.37;;
20314;SDS011;10315;50.958;13.080;2023-03-14T19:55:13;14.50;;;2.00;;
20314;SDS011;10315;50.958;13.080;2023-03-14T20:05:24;9.13;;;1.60;;
20314;SDS011;10315;50.958;13.080;2023-03-14T20:15:27;16.83;;;2.87;;
20314;SDS011;10315;50.958;13.080;2023-03-14T20:25:29;9.80;;;2.00;;
20314;SDS011;10315;50.958;13.080;2023-03-14T20:35:31;4.93;;;1.73;;
20314;SDS011;10315;50.958;13.080;2023-03-14T20:45:34;12.00;;;1.50;;
20314;SDS011;10315;50.958;13.080;2023-03-14T20:55:37;5.77;;;1.90;;
20314;SDS011;10315;50.958;13.080;2023-03-14T21:05:39;7.77;;;2.30;;
20314;SDS011;10315;50.958;13.080;2023-03-14T21:15:42;13.83;;;5.10;;
20314;SDS011;10315;50.958;13.080;2023-03-14T21:25:44;7.23;;;2.03;;
20314;SDS011;10315;50.958;13.080;2023-03-14T21:35:50;7.67;;;2.17;;
20314;SDS011;10315;50.958;13.080;2023-03-14T21:45:52;10.97;;;2.13;;
20314;SDS011;10315;50.958;13.080;2023-03-14T21:55:55;11.50;;;2.37;;
20314;SDS011;10315;50.958;13.080;2023-03-14T22:05:57;11.30;;;2.13;;
20314;SDS011;10315;50.958;13.080;2023-03-14T22:16:01;9.93;;;2.10;;
20314;SDS011;10315;50.958;13.080;2023-03-14T22:26:03;6.43;;;2.33;;
20314;SDS011;10315;50.958;13.080;2023-03-14T22:36:07;7.53;;;1.77;;
20314;SDS011;10315;50.958;13.080;2023-03-14T22:46:09;6.10;;;1.73;;
20314;SDS011;10315;50.958;13.080;2023-03-14T22:56:12;11.23;;;2.33;;
20314;SDS011;10315;50.958;13.080;2023-03-14T23:06:14;5.73;;;1.40;;
20314;SDS011;10315;50.958;13.080;2023-03-14T23:16:17;9.70;;;1.97;;
20314;SDS011;10315;50.958;13.080;2023-03-14T23:26:20;6.87;;;1.80;;
20314;SDS011;10315;50.958;13.080;2023-03-14T23:36:25;9.13;;;1.80;;
20314;SDS011;10315;50.958;13.080;2023-03-14T23:46:26;7.60;;;1.40;;
20314;SDS011;10315;50.958;13.080;2023-03-14T23:56:30;13.17;;;3.70;;
